Terminal Aerodrome Forecast
Issued by NWS

Home | Current Version | Previous Version | Text Only | Print | Product List | Glossary On
Versions: 1 2 3 4 5 6 7 8 9 10 11 12 13 14 15 16 17 18 19 20
000
FTUS43 KMPX 291700
TAFRWF
TAF
KRWF 291736Z 2918/3018 05008KT P6SM BKN015 OVC035
     FM292200 07008KT P6SM SCT015 BKN035
     FM300900 11007KT 5SM BR OVC008
     FM301400 13011KT P6SM SCT020 OVC090=

USA.gov is the U.S. government's official web portal to all federal, state and local government web resources and services.